Latest Weather Observations for Scherger

IDQ60801

Issued at 1:02 pm EST Tuesday 4 August 2015 (issued every 30 minutes, with the page automatically refreshed every 10 minutes)

About weather observations | Map of weather stations | Latest weather observations for QLD | Other Formats
Station Details ID: 027075 Name: SCHERGER RAAF Lat: -12.62 Lon: 142.09 Height: 39.34 m
Data from the previous 72 hours. | See also: Recent months at Scherger
Date/Time
EST
Temp
°C
App
Temp
°C
Dew
Point
Rel
Hum
%
Delta-T
°C
Wind Press
QNH
hPa
Press
MSL
hPa
Rain
since 9 am
mm
Dir
 
Spd
km/h
Gust
km/h
Spd
kts
Gust
kts
04/01:00pm 30.5 29.1 13.3 35 10.3 SE 13 20 7 11 1013.5 1013.3 0.0
04/12:30pm 29.0 27.7 13.6 38 9.2 S 13 22 7 12 1014.1 1013.9 0.0
04/12:00pm 29.1 28.2 14.9 42 8.6 SE 13 26 7 14 1014.8 1014.6 0.0
04/11:30am 28.6 29.0 16.2 47 7.7 SE 9 20 5 11 1015.3 1015.1 0.0
04/11:00am 27.8 28.1 17.0 51 6.8 ESE 11 20 6 11 1015.8 1015.6 0.0
04/10:30am 26.7 27.0 16.9 55 6.1 E 11 19 6 10 1016.3 1016.1 0.0
04/10:00am 25.6 25.7 17.5 61 5.1 SE 13 22 7 12 1016.5 1016.3 0.0
04/09:30am 24.6 25.2 18.5 69 3.9 ESE 13 17 7 9 1016.6 1016.4 0.0
04/09:00am 23.3 24.3 17.7 71 3.5 SE 9 17 5 9 1016.4 1016.2 0.0
04/08:30am 22.0 23.0 17.8 77 2.6 SSE 9 13 5 7 1016.1 1015.9 0.0
04/08:00am 19.9 21.4 17.5 86 1.5 SSE 6 11 3 6 1015.9 1015.7 0.0
04/07:30am 17.2 19.2 15.9 92 0.8 CALM 0 0 0 0 1015.7 1015.5 0.0
04/07:00am 16.0 17.4 14.4 90 0.9 CALM 0 0 0 0 1015.5 1015.3 0.0
04/06:30am 16.3 17.9 14.8 91 0.9 CALM 0 0 0 0 1015.3 1015.1 0.0
04/06:00am 16.4 18.0 14.9 91 0.9 CALM 0 0 0 0 1015.1 1014.9 0.0
04/05:30am 16.5 18.0 14.7 89 1.0 CALM 0 0 0 0 1014.8 1014.6 0.0
04/05:00am 16.7 18.4 15.1 90 0.9 CALM 0 0 0 0 1014.7 1014.5 0.0
04/04:30am 16.9 18.5 14.9 88 1.2 CALM 0 0 0 0 1014.7 1014.5 0.0
04/04:00am 17.3 19.1 15.5 89 1.1 CALM 0 0 0 0 1014.9 1014.7 0.0
04/03:30am 17.4 19.2 15.4 88 1.2 CALM 0 0 0 0 1015.0 1014.8 0.0
04/03:00am 17.5 19.3 15.5 88 1.2 CALM 0 0 0 0 1015.0 1014.8 0.0
04/02:30am 17.8 19.6 15.4 86 1.4 CALM 0 0 0 0 1015.2 1015.0 0.0
04/02:00am 18.2 20.1 15.8 86 1.4 CALM 0 0 0 0 1015.3 1015.1 0.0
04/01:30am 18.1 20.0 15.7 86 1.4 CALM 0 0 0 0 1015.6 1015.4 0.0
04/01:00am 18.5 20.2 15.2 81 1.9 CALM 0 0 0 0 1015.7 1015.5 0.0
04/12:30am 19.1 21.0 15.8 81 2.0 CALM 0 0 0 0 1015.8 1015.6 0.0
04/12:00am 19.5 21.4 15.8 79 2.2 CALM 0 0 0 0 1015.8 1015.6 0.0
 
Date/Time
EST
Temp
°C
App
Temp
°C
Dew
Point
Rel
Hum
%
Delta-T
°C
Wind Press
QNH
hPa
Press
MSL
hPa
Rain
since 9 am
mm
Dir
 
Spd
km/h
Gust
km/h
Spd
kts
Gust
kts
03/11:30pm 19.5 21.3 15.4 77 2.4 CALM 0 0 0 0 1015.8 1015.6 0.0
03/11:00pm 20.7 22.6 15.7 73 3.0 CALM 0 0 0 0 1015.9 1015.7 0.0
03/10:30pm 22.3 24.0 16.1 68 3.7 NE 2 9 1 5 1015.9 1015.7 0.0
03/10:00pm 22.9 23.3 16.2 66 4.1 ENE 9 13 5 7 1015.8 1015.6 0.0
03/09:30pm 22.2 23.8 14.8 63 4.4 CALM 0 0 0 0 1015.9 1015.7 0.0
03/09:00pm 24.0 24.9 15.0 57 5.4 ENE 4 11 2 6 1015.4 1015.2 0.0
03/08:30pm 24.7 25.0 15.1 55 5.8 ENE 7 20 4 11 1015.1 1014.9 0.0
03/08:00pm 25.4 25.2 14.8 52 6.4 E 9 15 5 8 1014.8 1014.6 0.0
03/07:30pm 25.7 25.4 14.5 50 6.7 E 9 13 5 7 1014.4 1014.2 0.0
03/07:00pm 26.4 26.3 13.9 46 7.4 E 7 11 4 6 1013.8 1013.6 0.0
03/06:30pm 27.6 26.9 13.2 41 8.5 ESE 9 17 5 9 1013.4 1013.2 0.0
03/06:00pm 28.7 27.8 12.6 37 9.4 ESE 9 15 5 8 1013.2 1013.0 0.0
03/05:30pm 29.8 28.6 12.7 35 10.1 ESE 11 20 6 11 1013.0 1012.8 0.0
03/05:00pm 30.7 29.3 12.1 32 10.9 SE 11 24 6 13 1013.0 1012.8 0.0
03/04:30pm 31.1 29.3 12.0 31 11.2 SE 13 26 7 14 1012.9 1012.7 0.0
03/04:00pm 31.1 28.9 12.0 31 11.2 ESE 15 22 8 12 1012.9 1012.7 0.0
03/03:30pm 31.7 29.5 12.0 30 11.6 SE 15 22 8 12 1012.9 1012.7 0.0
03/03:00pm 31.3 29.1 12.2 31 11.3 ESE 15 22 8 12 1013.1 1012.9 0.0
03/02:30pm 31.8 30.1 12.6 31 11.4 E 13 32 7 17 1013.6 1013.4 0.0
03/02:00pm 31.4 29.6 12.2 30 11.3 E 13 22 7 12 1014.0 1013.8 0.0
03/01:30pm 30.8 28.6 12.2 32 10.9 E 15 24 8 13 1014.4 1014.2 0.0
03/01:00pm 31.8 30.6 14.0 34 10.8 ESE 13 26 7 14 1014.9 1014.7 0.0
03/12:30pm 29.9 28.3 14.0 37 9.6 E 15 26 8 14 1015.5 1015.3 0.0
03/12:00pm 29.7 28.2 15.4 42 8.8 ESE 17 28 9 15 1015.9 1015.7 0.0
03/11:30am 29.4 28.6 15.1 41 8.8 E 13 35 7 19 1016.2 1016.0 0.0
03/11:00am 28.4 28.0 16.3 47 7.5 ESE 13 24 7 13 1016.7 1016.5 0.0
03/10:30am 27.3 26.6 16.3 51 6.8 ESE 15 22 8 12 1017.1 1016.9 0.0
03/10:00am 26.1 26.0 16.9 57 5.7 E 13 26 7 14 1017.4 1017.2 0.0
03/09:30am 24.9 24.5 17.1 62 4.8 E 15 26 8 14 1017.5 1017.3 0.0
03/09:00am 24.1 24.6 17.4 66 4.2 ESE 11 17 6 9 1017.4 1017.2 0.0
03/08:30am 22.6 23.0 17.3 72 3.3 ESE 11 20 6 11 1017.0 1016.8 0.0
03/08:00am 21.8 21.6 16.7 73 3.1 SE 13 24 7 13 1016.7 1016.5 0.0
03/07:30am 21.1 20.5 16.7 76 2.7 ESE 15 26 8 14 1016.3 1016.1 0.0
03/07:00am 20.7 20.6 16.9 79 2.3 ESE 13 22 7 12 1016.2 1016.0 0.0
03/06:30am 20.0 20.7 17.0 83 1.8 ESE 9 20 5 11 1015.9 1015.7 0.0
03/06:00am 18.4 19.4 16.4 88 1.2 E 6 11 3 6 1015.7 1015.5 0.0
03/05:30am 18.0 19.0 16.3 90 1.0 ENE 6 9 3 5 1015.6 1015.4 0.0
03/05:00am 18.1 20.1 16.1 88 1.2 CALM 0 6 0 3 1015.4 1015.2 0.0
03/04:30am 18.4 20.4 16.0 86 1.4 CALM 0 0 0 0 1015.4 1015.2 0.0
03/04:00am 19.0 20.2 16.8 87 1.3 SE 6 9 3 5 1015.4 1015.2 0.0
03/03:30am 19.1 20.3 16.9 87 1.3 SE 6 11 3 6 1015.5 1015.3 0.0
03/03:00am 18.5 19.4 16.1 86 1.4 SE 6 9 3 5 1015.6 1015.4 0.0
03/02:30am 18.5 19.0 15.6 83 1.7 SSE 7 9 4 5 1015.8 1015.6 0.0
03/02:00am 19.2 19.3 15.5 79 2.2 SSE 9 9 5 5 1016.0 1015.8 0.0
03/01:30am 19.7 20.3 15.8 78 2.3 SE 7 11 4 6 1016.3 1016.1 0.0
03/01:00am 20.1 20.7 15.7 76 2.6 SE 7 13 4 7 1016.6 1016.4 0.0
03/12:30am 20.2 20.8 15.8 76 2.6 SE 7 9 4 5 1016.8 1016.6 0.0
03/12:00am 20.1 20.4 15.1 73 2.9 ESE 7 11 4 6 1016.8 1016.6 0.0
 
Date/Time
EST
Temp
°C
App
Temp
°C
Dew
Point
Rel
Hum
%
Delta-T
°C
Wind Press
QNH
hPa
Press
MSL
hPa
Rain
since 9 am
mm
Dir
 
Spd
km/h
Gust
km/h
Spd
kts
Gust
kts
02/11:30pm 20.0 21.5 14.6 71 3.2 CALM 0 0 0 0 1017.0 1016.8 0.0
02/11:00pm 20.6 22.0 14.3 67 3.7 CALM 0 2 0 1 1017.1 1016.9 0.0
02/10:30pm 21.7 22.0 14.6 64 4.2 ESE 6 7 3 4 1017.2 1017.0 0.0
02/10:00pm 22.3 22.5 14.7 62 4.5 E 7 11 4 6 1017.1 1016.9 0.0
02/09:30pm 23.0 22.8 14.6 59 5.0 ESE 9 13 5 7 1016.9 1016.7 0.0
02/09:00pm 23.5 22.9 14.5 57 5.3 ESE 11 17 6 9 1016.5 1016.3 0.0
02/08:30pm 24.1 23.5 14.5 55 5.7 ESE 11 17 6 9 1016.1 1015.9 0.0
02/08:00pm 24.7 24.5 14.8 54 5.9 ESE 9 17 5 9 1015.5 1015.3 0.0
02/07:30pm 25.5 24.8 14.3 50 6.7 ESE 11 19 6 10 1015.0 1014.8 0.0
02/07:00pm 26.2 25.5 14.3 48 7.1 ESE 11 19 6 10 1014.5 1014.3 0.0
02/06:30pm 27.1 25.8 13.8 44 7.9 ESE 13 20 7 11 1014.0 1013.8 0.0
02/06:00pm 27.9 26.9 13.4 40 8.6 ESE 11 24 6 13 1013.7 1013.5 0.0
02/05:30pm 29.1 27.5 12.9 37 9.6 SE 13 20 7 11 1013.5 1013.3 0.0
02/05:00pm 30.0 29.0 13.3 36 10.0 E 11 20 6 11 1013.2 1013.0 0.0
02/04:30pm 30.4 28.9 13.2 35 10.3 ESE 13 24 7 13 1013.1 1012.9 0.0
02/04:00pm 30.8 29.3 13.1 34 10.6 ESE 13 20 7 11 1013.0 1012.8 0.0
02/03:30pm 31.1 28.8 12.9 32 10.8 ESE 17 24 9 13 1013.1 1012.9 0.0
02/03:00pm 31.0 29.4 12.8 32 10.8 E 13 24 7 13 1013.5 1013.3 0.0
02/02:30pm 30.6 28.3 13.0 34 10.5 ESE 17 30 9 16 1013.9 1013.7 0.0
02/02:00pm 30.4 28.2 13.2 35 10.3 ESE 17 28 9 15 1014.2 1014.0 0.0
02/01:30pm 30.4 28.5 14.1 37 9.9 E 17 28 9 15 1014.5 1014.3 0.0
02/01:00pm 30.5 29.7 15.0 39 9.5 ESE 13 22 7 12 1015.0 1014.8 0.0
02/12:30pm 29.4 27.3 14.8 41 8.9 E 19 32 10 17 1015.6 1015.4 0.0
02/12:00pm 29.4 27.8 15.1 41 8.7 ESE 17 32 9 17 1016.1 1015.9 0.0
02/11:30am 28.6 26.7 15.2 44 8.2 ESE 19 32 10 17 1016.7 1016.5 0.0
02/11:00am 27.7 25.7 15.4 47 7.5 ESE 20 32 11 17 1016.9 1016.7 0.0
02/10:30am 27.3 26.4 16.9 53 6.5 E 17 28 9 15 1017.2 1017.0 0.0
02/10:00am 25.5 24.7 17.2 60 5.2 ESE 17 28 9 15 1017.6 1017.4 0.0
02/09:30am 24.4 23.0 16.9 63 4.6 ESE 20 37 11 20 1017.4 1017.2 0.0
02/09:00am 23.9 23.9 17.2 66 4.1 ESE 13 22 7 12 1017.1 1016.9 0.0
02/08:30am 22.8 22.5 17.3 71 3.4 SE 15 30 8 16 1017.0 1016.8 0.0
02/08:00am 21.5 21.8 17.1 76 2.7 SE 11 19 6 10 1016.7 1016.5 0.0
02/07:30am 20.2 20.5 17.0 82 1.9 SSE 11 15 6 8 1016.6 1016.4 0.0
02/07:00am 19.0 19.8 16.4 85 1.6 SSE 7 9 4 5 1016.3 1016.1 0.0
02/06:30am 19.2 20.2 16.8 86 1.5 SSE 7 13 4 7 1016.0 1015.8 0.0
02/06:00am 18.8 19.7 16.6 87 1.3 SSE 7 11 4 6 1015.7 1015.5 0.0
02/05:30am 19.2 20.1 16.6 85 1.6 SSE 7 11 4 6 1015.8 1015.6 0.0
02/05:00am 19.6 20.4 16.4 82 1.9 SSE 7 9 4 5 1015.5 1015.3 0.0
02/04:30am 19.9 21.0 16.5 81 2.1 SE 6 11 3 6 1015.5 1015.3 0.0
02/04:00am 20.4 21.3 16.6 79 2.3 SE 7 11 4 6 1015.5 1015.3 0.0
02/03:30am 20.7 21.6 16.7 78 2.4 ESE 7 11 4 6 1015.3 1015.1 0.0
02/03:00am 20.9 21.9 16.9 78 2.4 ESE 7 15 4 8 1015.3 1015.1 0.0
02/02:30am 20.8 21.4 16.8 78 2.4 ESE 9 15 5 8 1015.3 1015.1 0.0
02/02:00am 20.8 21.9 17.2 80 2.2 ESE 7 13 4 7 1015.5 1015.3 0.0
02/01:30am 20.6 22.3 17.2 81 2.1 ESE 4 7 2 4 1015.5 1015.3 0.0
02/01:00am 20.8 21.9 17.2 80 2.2 SE 7 13 4 7 1015.6 1015.4 0.0
02/12:30am 21.3 22.5 17.3 78 2.5 SE 7 11 4 6 1015.7 1015.5 0.0
02/12:00am 21.6 22.9 17.2 76 2.7 ESE 6 9 3 5 1015.8 1015.6 0.0
 
Date/Time
EST
Temp
°C
App
Temp
°C
Dew
Point
Rel
Hum
%
Delta-T
°C
Wind Press
QNH
hPa
Press
MSL
hPa
Rain
since 9 am
mm
Dir
 
Spd
km/h
Gust
km/h
Spd
kts
Gust
kts
01/11:30pm 22.1 23.4 17.5 75 2.8 ESE 7 15 4 8 1016.0 1015.8 0.0
01/11:00pm 22.3 23.5 17.4 74 3.0 E 7 11 4 6 1016.3 1016.1 0.0
01/10:30pm 21.7 24.1 17.1 75 2.8 CALM 0 0 0 0 1016.3 1016.1 0.0
01/10:00pm 22.4 23.8 17.3 73 3.1 ESE 6 9 3 5 1016.1 1015.9 0.0
01/09:30pm 22.7 23.9 17.4 72 3.3 SE 7 11 4 6 1016.0 1015.8 0.0
01/09:00pm 22.7 23.9 17.4 72 3.3 E 7 11 4 6 1015.9 1015.7 0.0
01/08:30pm 22.9 23.4 17.4 71 3.4 ESE 11 22 6 12 1015.5 1015.3 0.0
01/08:00pm 23.1 24.1 17.8 72 3.3 SE 9 13 5 7 1015.1 1014.9 0.0
01/07:30pm 23.3 24.6 17.5 70 3.6 SE 7 13 4 7 1014.7 1014.5 0.0
01/07:00pm 23.6 25.0 17.3 67 3.9 ESE 6 11 3 6 1014.4 1014.2 0.0
01/06:30pm 23.9 25.0 18.1 70 3.6 E 9 15 5 8 1014.0 1013.8 0.0
01/06:00pm 23.7 25.8 19.4 77 2.8 E 7 11 4 6 1013.8 1013.6 0.0
01/05:30pm 23.5 25.6 19.0 76 2.9 E 6 9 3 5 1013.5 1013.3 0.0
01/05:00pm 27.3 28.5 18.3 58 5.7 E 9 20 5 11 1013.2 1013.0 0.0
01/04:30pm 26.3 26.6 17.9 60 5.3 ENE 13 24 7 13 1013.0 1012.8 0.0
01/04:00pm 26.2 25.4 17.0 57 5.7 ESE 17 30 9 16 1012.9 1012.7 0.0
01/03:30pm 27.6 26.6 17.5 54 6.4 ESE 19 32 10 17 1012.7 1012.5 0.0
01/03:00pm 27.4 26.6 17.0 53 6.5 ESE 17 30 9 16 1012.8 1012.6 0.0
01/02:30pm 28.9 29.3 18.1 52 6.9 E 13 28 7 15 1013.0 1012.8 0.0
01/02:00pm 27.3 26.3 17.5 55 6.2 E 19 30 10 16 1013.4 1013.2 0.0
01/01:30pm 28.1 27.5 17.6 53 6.6 ESE 17 35 9 19 1013.8 1013.6 0.0

Other Formats:

Comma delimited format used in spreadsheet applications
http://www.bom.gov.au/fwo/IDQ60801/IDQ60801.94171.axf

JavaScript Object Notation format (JSON) in row-major order
http://www.bom.gov.au/fwo/IDQ60801/IDQ60801.94171.json